Aérodrome :
LOGIN :

S'inscrire | Disclaimer

   EN    FR    IT 

 










Légende :    VFR   VFR Marginal   IFR   IFR Intensif   IFR Très Intensif
Visi : 
Plafond : 
>= 8 km
>= 3000ft
5 à 8 km
1000 à 3000 ft
1500m à 5 km
500 à 1000 ft
800 à 1500m
200 à 500 ft
< 800m
< 200 ft
Symboles :   Orages  Brouillard  Fortes neiges  Fortes précipitations  Vent > 20 kt
SIGMETs :   Divers  Orages  Givrage  Turbulence  Onde Orograph.  Cendres Volcan.






- Altitude de l'aérodrome : 512 ft
- Code IATA : URO


LFOP - Rouen Vallée de Seine

DERNIER METAR :
  • 101130Z AUTO 12006KT 070V170 CAVOK 33/15 Q1013 TEMPO SCT100CB

METARs EXPIRÉS :
  • 101100Z AUTO 11005KT 050V220 CAVOK 33/15 Q1013 TEMPO VRB25G35KT 3000 TSRA BKN070CB
  • 101030Z AUTO 14005KT 070V200 CAVOK 31/14 Q1014 TEMPO VRB25G35KT 3000 TSRA BKN070CB
  • 101000Z AUTO 12005KT 070V160 CAVOK 31/16 Q1014 TEMPO VRB25G35KT 3000 TSRA BKN070CB
  • 100930Z AUTO 15005KT 070V180 CAVOK 29/17 Q1014 TEMPO VRB25G35KT 3000 TSRA BKN070CB
  • 100900Z AUTO 15008KT 110V180 CAVOK 28/17 Q1014 TEMPO SCT100CB

TAF TAF LFOP
Valide du 10 à 12h jusqu'au 11 à 12h UTC


101100Z 1012/1112 08007KT CAVOK
TEMPO 1012/1112 SCT100CB
PROB30
TEMPO 1015/1112 VRB25G35KT 3000 TSRA BKN070CB
ATIS : +33 2 35 80 80 34
Météo : +33 2 32 86 52 80



MET'MAP, la Météo Aéronautique d'un coup d'oeil ! - Copyright ORBIFLY Décembre 2007 - Disclaimer

ORBIFLY MET'MAP TEAM :

Programmation & Développement : Alexandra Zaïnal
Sur une idée originale de : Baudouin d'Aumeries
Assistance à la programmation : Marc-Olivier Méhu
Soutien technique & logistique : Manuel Goepfert

Contact : metmap@orbifly.com




SOURCES & CREDITS :

   NOAA